Aviation Digital Data Service (ADDS)

Output produced by METARs form (1527 UTC 16 February 2019)
found at http://aviationweather.gov/metar/data/
 
METAR text: KBAB 161458Z AUTO 16014KT 10SM FEW012 BKN110 06/04 A3006 RMK AO2 SLP183 T00610043 52005 $
Conditions at: KBAB (BEALE AFB/MARYSV, CA, US) observed 1458 UTC 16 February 2019
Temperature: 6.1°C (43°F)
Dewpoint: 4.3°C (40°F) [RH = 88%]
Pressure (altimeter): 30.06 inches Hg (1018.0 mb)
[Sea-level pressure: 1018.3 mb]
Winds: from the SSE (160 degrees) at 16 MPH (14 knots; 7.2 m/s)
Visibility: 10 or more miles (16+ km)
Ceiling: 11000 feet AGL
Clouds: few clouds at 1200 feet AGL
broken clouds at 11000 feet AGL
Weather:
SOME DATA ABOVE MAY BE INACCURATE!!!
"$" is an indication the sensor requires maintenance